Date,TemperatureHighF,TemperatureAvgF,TemperatureLowF,DewpointHighF,DewpointAvgF,DewpointLowF,HumidityHigh,HumidityAvg,HumidityLow,PressureMaxIn,PressureMinIn,WindSpeedMaxMPH,WindSpeedAvgMPH,GustSpeedMaxMPH,PrecipitationSumIn
2013-1-1,35,22,11,18,5,0,76,50,26,30.13,30.06,2,0,10,0.02
2013-1-2,42,27,14,5,2,-6,58,35,17,30.12,30.06,2,0,9,0.00
2013-1-3,45,28,16,4,-2,-16,49,30,9,30.16,30.07,1,0,9,0.00
2013-1-4,54,28,11,8,0,-13,57,37,6,30.21,30.14,2,0,7,0.00
2013-1-5,54,34,17,16,5,-2,62,36,11,30.23,30.11,2,0,9,0.00
2013-1-6,33,29,25,25,17,2,86,64,28,30.11,29.91,8,2,23,0.00
2013-1-7,38,28,21,21,12,0,85,55,27,30.08,29.90,5,1,15,0.14
2013-1-8,53,39,26,26,17,4,71,44,21,30.24,30.08,2,0,10,0.02
2013-1-9,58,38,25,31,21,12,78,53,23,30.23,29.96,10,1,26,0.01
2013-1-10,41,26,15,27,15,3,89,71,22,29.96,29.75,13,4,29,0.01
2013-1-11,23,16,11,11,9,6,81,72,58,29.95,29.87,4,1,15,0.03
2013-1-12,28,14,3,16,2,-8,79,62,21,29.95,29.87,3,0,7,0.02
2013-1-13,30,14,0,12,-3,-7,77,51,23,29.96,29.88,4,0,10,0.01
2013-1-14,23,14,1,3,-10,-19,62,37,16,30.14,29.96,7,1,20,0.00
2013-1-15,37,29,21,17,12,3,59,50,41,30.32,30.13,5,0,11,0.01
2013-1-16,49,37,27,26,12,1,62,39,23,30.32,30.24,2,0,11,0.01
2013-1-17,51,35,21,15,5,-1,49,30,14,30.28,30.20,2,0,7,0.00
2013-1-18,54,33,18,19,8,3,56,38,15,30.24,30.18,2,0,7,0.00
2013-1-19,53,33,18,5,0,-7,49,28,8,30.27,30.20,2,0,10,0.00
2013-1-20,54,32,16,8,1,-4,58,31,9,30.24,30.16,1,0,7,0.00
2013-1-21,55,36,22,7,-2,-10,47,22,7,30.22,30.16,3,0,11,0.00
2013-1-22,62,36,15,15,4,-8,52,31,9,30.22,30.17,3,0,9,0.00
2013-1-23,54,45,33,33,25,13,70,46,31,30.22,30.14,6,1,17,0.00
2013-1-24,50,42,35,42,36,32,91,82,62,30.21,30.11,3,0,10,0.23
2013-1-25,46,40,35,43,37,32,92,90,83,30.21,30.03,2,0,4,0.23
2013-1-26,47,39,36,40,36,31,92,86,67,30.03,29.94,3,1,10,0.21
2013-1-27,39,32,21,33,25,17,86,73,49,29.99,29.85,8,3,20,0.01
2013-1-28,28,21,14,19,15,8,86,78,56,30.03,29.87,3,1,11,0.08
2013-1-29,51,34,13,25,17,8,81,54,29,30.22,30.03,6,1,16,0.03
2013-1-30,53,40,30,25,19,12,62,44,24,30.29,30.21,2,0,10,0.01
2013-1-31,54,40,26,25,21,15,75,50,23,30.27,30.19,2,0,6,0.00
2013-2-1,61,39,23,32,21,13,81,55,16,30.27,30.20,2,0,7,0.00
2013-2-2,60,42,28,32,22,13,81,51,16,30.29,30.21,1,0,5,0.00
2013-2-3,50,40,30,42,29,21,91,68,35,30.21,30.09,3,0,10,0.13
2013-2-4,54,38,26,32,21,14,77,55,20,30.15,30.08,1,0,9,0.02
2013-2-5,57,38,23,25,17,9,76,48,16,30.11,30.01,4,1,10,0.00
2013-2-6,51,37,24,22,8,-12,72,36,7,30.11,29.98,2,0,12,0.00
2013-2-7,52,34,18,27,9,-2,82,42,11,30.11,29.87,7,2,19,0.00
2013-2-8,27,22,18,22,18,14,86,84,75,29.87,29.73,9,2,18,0.00
2013-2-9,30,22,12,24,17,6,85,81,72,29.95,29.76,3,1,11,0.26
2013-2-10,32,20,7,22,12,1,82,70,48,29.95,29.89,3,0,9,0.04
2013-2-11,28,22,17,18,6,-5,84,54,27,30.12,29.93,5,1,15,0.09
2013-2-12,41,27,14,11,5,-3,53,40,26,30.21,30.11,2,0,9,0.01
2013-2-13,51,36,26,18,13,6,63,40,24,30.22,30.15,2,0,6,0.01
2013-2-14,47,35,25,23,16,14,70,50,28,30.24,30.16,4,0,11,0.00
2013-2-15,51,38,28,17,8,-3,57,30,15,30.30,30.22,5,1,15,0.00
2013-2-16,58,40,24,14,3,-7,63,24,8,30.30,30.08,4,0,11,0.00
2013-2-17,50,35,21,20,12,4,76,45,17,30.08,29.96,6,1,13,0.00
2013-2-18,53,32,17,20,13,4,72,49,13,30.03,29.92,5,0,10,0.00
2013-2-19,43,27,20,24,13,-8,87,60,12,29.92,29.58,8,2,19,0.00
2013-2-20,29,21,14,25,17,9,87,83,80,29.89,29.53,5,1,17,0.18
2013-2-21,31,20,10,21,11,5,84,68,55,30.01,29.87,4,0,12,0.04
2013-2-22,43,24,11,26,10,3,72,56,31,30.13,30.00,1,0,5,0.01
2013-2-23,49,33,19,21,14,5,81,51,17,30.11,29.88,6,1,17,0.01
2013-2-24,35,26,20,13,-6,-14,59,25,15,30.14,29.96,10,2,27,0.00
2013-2-25,51,33,15,14,2,-9,54,29,15,30.15,30.05,5,1,11,0.00
2013-2-26,46,34,22,15,3,-10,45,27,15,30.14,30.02,2,0,9,0.00
2013-2-27,45,32,20,7,1,-3,49,29,15,30.28,30.14,4,0,11,0.00
2013-2-28,51,36,23,13,6,-1,44,30,17,30.37,30.27,4,0,11,0.00
2013-3-1,57,40,28,17,12,4,55,33,17,30.37,30.31,5,0,12,0.00
2013-3-2,62,42,23,23,15,9,66,38,14,30.35,30.19,4,1,13,0.00
2013-3-3,51,42,34,28,20,7,75,43,23,30.20,29.98,10,4,29,0.00
2013-3-4,56,40,27,31,24,16,83,57,21,30.14,29.99,5,0,11,0.00
2013-3-5,56,39,25,35,23,9,78,56,20,30.13,30.01,7,1,13,0.00
2013-3-6,51,37,28,27,20,4,81,53,17,30.03,29.96,7,2,17,0.00
2013-3-7,41,32,26,28,25,22,86,76,58,29.96,29.82,5,1,13,0.00
2013-3-8,28,26,23,25,22,19,88,83,76,29.89,29.72,10,2,20,0.18
2013-3-9,37,31,26,26,22,16,84,68,43,30.17,29.89,4,1,15,0.07
2013-3-10,51,37,26,17,10,2,62,35,15,30.26,30.17,3,0,12,0.07
2013-3-11,61,40,21,18,8,0,57,31,10,30.25,30.16,1,0,5,0.00
2013-3-12,63,44,27,25,17,12,69,38,16,30.27,30.18,3,0,10,0.00
2013-3-13,69,48,29,24,20,15,72,38,13,30.30,30.25,4,0,9,0.00
2013-3-14,73,50,30,29,22,18,72,41,15,30.30,30.24,3,0,10,0.00
2013-3-15,70,49,33,34,22,9,71,42,10,30.26,30.11,5,1,13,0.00
2013-3-16,65,51,37,29,17,10,61,30,12,30.11,30.03,3,1,12,0.00
2013-3-17,66,48,35,22,11,-15,59,27,4,30.09,30.02,4,0,12,0.00
2013-3-18,62,46,29,24,15,3,59,31,14,30.11,30.04,4,0,12,0.00
2013-3-19,60,47,37,33,23,17,70,41,22,30.17,30.07,5,1,12,0.00
2013-3-20,58,47,36,34,28,17,75,51,22,30.17,30.05,6,2,17,0.00
2013-3-21,66,48,35,30,17,-1,64,35,7,30.04,29.89,4,1,16,0.00
2013-3-22,58,44,31,25,8,-8,64,26,7,29.99,29.88,6,1,15,0.00
2013-3-23,58,43,25,23,10,-3,55,29,12,30.08,29.98,4,0,12,0.00
2013-3-24,62,45,31,24,17,11,67,38,14,30.08,30.04,6,0,13,0.00
2013-3-25,63,46,28,31,16,5,70,38,11,30.09,30.04,5,1,12,0.00
2013-3-26,61,46,32,32,16,-4,72,38,7,30.06,29.99,4,1,13,0.00
2013-3-27,54,43,34,32,28,23,75,56,34,30.08,29.98,8,2,18,0.00
2013-3-28,60,45,33,35,28,24,83,55,26,30.16,30.06,6,1,15,0.00
2013-3-29,64,47,29,35,28,20,85,54,20,30.19,30.14,3,0,9,0.00
2013-3-30,61,49,37,35,27,-100,75,47,23,30.19,30.13,4,1,12,0.00
2013-3-31,54,44,36,36,30,22,77,60,31,30.14,30.06,6,2,15,0.00
2013-4-1,54,41,28,33,21,6,80,50,17,30.10,30.04,5,1,16,0.00
2013-4-2,61,44,26,29,22,14,82,47,20,30.14,30.05,3,0,11,0.00
2013-4-3,36,32,30,22,20,20,67,63,56,30.15,30.14,0,0,0,0.00
2013-4-4,62,53,39,36,25,15,65,39,16,30.15,30.09,7,3,19,0.00
2013-4-5,62,47,37,39,29,13,85,53,17,30.10,30.05,4,1,12,0.00
2013-4-6,62,50,34,35,25,19,85,43,20,30.11,30.05,5,2,13,0.00
2013-4-7,47,44,42,28,24,20,54,44,35,29.96,29.90,2,0,5,0.00
2013-4-8,41,36,29,32,25,18,89,67,44,29.90,29.63,11,3,27,0.02
2013-4-9,47,36,28,23,7,-7,74,34,12,30.07,29.82,3,1,12,0.01
2013-4-10,57,44,35,14,6,-2,38,22,10,30.17,30.05,11,2,24,0.00
2013-4-11,61,46,30,33,20,12,64,39,18,30.14,29.93,7,1,16,0.00
2013-4-12,65,48,31,34,25,20,72,45,19,30.03,29.94,2,0,10,0.00
2013-4-13,60,48,35,35,19,0,69,35,13,30.03,29.92,10,3,24,0.00
2013-4-14,66,52,36,33,22,15,61,34,17,29.94,29.85,7,2,17,0.00
2013-4-15,59,46,35,36,18,-1,75,37,10,29.88,29.83,6,2,13,0.00
2013-4-16,43,35,28,25,14,3,69,44,24,29.93,29.79,4,2,20,0.00
2013-4-17,43,32,25,19,8,-4,76,42,14,30.14,29.93,5,0,13,0.02
2013-4-18,52,38,26,7,-2,-7,34,20,9,30.24,30.14,3,0,9,0.01
2013-4-19,64,46,28,14,3,-6,32,18,9,30.24,30.12,3,0,13,0.00
2013-4-20,69,52,33,28,19,13,58,31,12,30.16,30.10,3,0,10,0.00
2013-4-21,72,52,32,29,22,11,67,37,10,30.18,30.13,4,1,12,0.00
2013-4-22,73,55,36,35,22,12,59,33,10,30.15,30.02,4,1,12,0.00
2013-4-23,64,51,40,30,17,7,62,31,12,30.10,30.01,3,1,11,0.00
2013-4-24,65,50,36,36,20,12,65,34,14,30.06,29.98,6,1,19,0.00
2013-4-25,63,50,35,34,18,9,63,34,12,30.16,29.96,3,0,11,0.00
2013-4-26,68,51,32,32,19,10,60,34,12,30.28,30.16,3,0,10,0.00
2013-4-27,70,54,34,32,16,5,69,30,8,30.30,30.21,4,0,11,0.00
2013-4-28,74,57,36,37,20,12,47,27,10,30.21,30.11,6,1,11,0.00
2013-4-29,73,58,38,41,18,11,58,26,10,30.12,30.01,8,2,18,0.00
2013-4-30,73,58,42,31,21,3,43,25,13,30.01,29.96,6,1,16,0.00
2013-5-1,64,53,40,26,7,-11,51,19,7,30.27,29.99,4,1,11,0.00
2013-5-2,59,43,38,-1,-8,-13,13,11,7,30.32,30.27,2,0,7,0.00
2013-5-3,71,61,41,15,9,3,30,15,7,30.14,30.06,3,1,11,0.00
2013-5-4,67,52,34,33,18,8,55,31,11,30.05,29.90,7,2,19,0.00
2013-5-5,49,44,38,35,23,10,82,46,24,29.97,29.91,5,1,11,0.00
2013-5-6,51,40,34,37,32,27,89,74,48,30.00,29.93,11,3,19,0.00
2013-5-7,49,39,32,34,28,25,80,67,44,30.05,29.96,6,2,13,0.00
2013-5-8,57,42,29,40,32,25,88,71,36,30.11,30.04,4,0,10,0.00
2013-5-9,60,45,32,46,33,23,89,68,27,30.16,30.09,3,0,10,0.22
2013-5-10,65,51,35,44,30,-100,91,54,22,30.26,30.15,3,0,15,0.21
2013-5-11,72,56,38,38,26,-100,72,37,17,30.32,30.25,4,1,13,0.01
2013-5-12,76,59,38,33,26,17,68,35,12,30.33,30.24,3,0,11,0.00
2013-5-13,77,61,41,45,28,20,73,34,13,30.28,30.21,6,1,13,0.00
2013-5-14,71,58,43,34,23,14,63,29,12,30.22,30.10,13,3,28,0.00
2013-5-15,72,57,42,37,28,14,63,36,17,30.15,30.09,5,1,13,0.00
2013-5-16,71,52,41,34,11,-100,72,33,4,30.11,30.02,7,2,19,0.00
2013-5-17,61,49,42,37,26,-100,79,48,22,30.06,29.98,8,3,20,0.00
2013-5-18,68,53,34,36,28,19,83,44,17,30.11,30.03,6,1,13,0.00
2013-5-19,72,57,40,34,22,15,61,28,15,30.13,30.09,3,1,10,0.00
2013-5-20,71,54,37,26,20,13,53,29,13,30.18,30.12,3,0,9,0.00
2013-5-21,71,55,36,36,23,13,59,31,14,30.16,30.02,5,2,15,0.00
2013-5-22,67,55,45,32,18,-7,43,26,5,30.03,29.90,9,2,23,0.00
2013-5-23,64,52,42,31,5,-27,54,19,2,30.01,29.90,6,2,15,0.00
2013-5-24,67,52,33,38,17,1,54,28,10,30.06,29.99,5,1,12,0.00
2013-5-25,68,53,36,27,10,-6,41,20,6,30.08,30.02,5,1,13,0.00
2013-5-26,69,54,39,33,20,2,55,28,15,30.10,30.04,6,2,16,0.00
2013-5-27,71,57,42,38,28,15,62,37,12,30.09,30.02,5,1,15,0.00
2013-5-28,66,55,45,36,30,25,61,41,24,30.02,29.94,7,3,18,0.00
2013-5-29,70,57,39,38,27,6,66,37,9,30.03,29.96,8,2,19,0.00
2013-5-30,78,61,40,42,28,10,65,36,8,30.10,29.99,5,1,15,0.00
2013-5-31,78,64,47,31,22,16,46,22,12,30.16,30.07,3,0,11,0.00
2013-6-1,80,64,45,30,21,14,41,22,9,30.16,30.10,3,0,13,0.00
2013-6-2,80,63,45,40,29,22,55,30,12,30.11,30.00,7,1,19,0.00
2013-6-3,78,62,44,35,26,13,45,27,13,30.07,29.99,4,1,12,0.00
2013-6-4,79,61,42,34,23,12,52,29,9,30.13,30.05,3,0,10,0.00
2013-6-5,82,63,42,32,22,17,55,24,9,30.16,30.12,3,1,12,0.00
2013-6-6,84,65,44,35,25,19,50,25,10,30.16,30.11,4,1,13,0.00
2013-6-7,85,66,47,35,24,15,47,24,9,30.14,30.09,4,0,16,0.00
2013-6-8,88,70,49,43,27,16,52,26,7,30.14,30.09,4,1,12,0.00
2013-6-9,82,67,51,38,21,6,48,20,7,30.14,30.09,6,1,16,0.00
2013-6-10,69,59,49,28,18,11,32,21,11,30.11,30.03,14,4,25,0.00
2013-6-11,81,64,46,33,24,16,45,25,11,30.19,30.11,5,1,12,0.00
2013-6-12,54,51,47,29,24,19,48,35,26,30.19,30.16,1,0,2,0.00
2013-6-13,80,68,48,26,16,1,32,16,5,30.19,30.13,4,2,13,0.00
2013-6-14,79,61,38,27,15,1,48,20,5,30.13,30.07,4,1,12,0.00
2013-6-15,76,57,42,26,12,-3,34,19,5,30.14,30.06,6,1,15,0.00
2013-6-16,80,60,36,30,12,-2,42,18,5,30.18,30.12,4,1,10,0.00
2013-6-17,80,60,38,41,19,5,50,24,6,30.18,30.13,4,1,12,0.00
2013-6-18,79,61,42,30,17,3,60,25,6,30.14,30.03,7,2,15,0.00
2013-6-19,77,60,43,30,15,-6,48,21,5,30.04,29.99,4,1,12,0.00
2013-6-20,76,57,40,34,17,9,46,25,9,30.05,30.01,5,1,11,0.00
2013-6-21,79,74,70,20,20,20,15,13,11,30.08,30.07,1,1,9,0.00
2013-6-22,79,70,47,40,28,20,50,23,12,30.09,30.05,4,1,11,0.00
2013-6-23,73,59,44,39,28,19,68,36,14,30.06,29.98,4,1,12,0.00
2013-6-24,66,58,53,41,32,22,55,37,23,30.06,29.96,8,3,18,0.00
2013-6-25,78,70,57,47,42,36,69,39,23,30.18,30.14,6,2,13,0.00
2013-6-26,84,68,51,50,42,39,74,44,21,30.27,30.18,4,1,11,0.00
2013-6-27,87,74,58,47,42,37,53,35,20,30.32,30.27,3,0,11,0.00
2013-6-28,58,56,54,37,34,31,45,43,41,30.31,30.29,0,0,2,0.00
2013-7-2,85,75,61,41,38,34,43,27,18,30.27,30.22,5,2,12,0.00
2013-7-3,88,73,59,46,40,36,55,34,17,30.24,30.14,4,1,11,0.00
2013-7-4,88,72,56,48,39,34,61,33,18,30.16,30.10,5,1,13,0.00
2013-7-5,86,70,54,46,37,24,56,33,11,30.13,30.07,4,1,10,0.00
2013-7-6,84,67,55,45,38,23,57,38,14,30.11,30.07,4,1,11,0.00
2013-7-7,84,69,52,40,30,22,51,26,13,30.17,30.09,6,1,15,0.00
2013-7-8,85,64,49,40,25,-100,51,27,9,30.27,30.16,5,1,16,0.00
2013-7-9,84,70,52,45,31,24,46,26,12,30.32,30.25,3,1,10,0.00
2013-7-10,83,71,64,40,31,-100,35,24,16,30.28,30.18,3,1,10,0.00
2013-7-11,70,64,60,51,42,34,71,44,34,30.20,30.14,1,0,6,0.00
2013-7-12,75,63,53,51,43,37,69,50,31,30.19,30.14,3,0,9,0.00
2013-7-13,80,65,49,45,40,35,72,42,22,30.23,30.17,2,0,9,0.01
2013-7-14,78,66,54,47,39,32,55,38,27,30.22,30.16,3,0,7,0.01
2013-7-15,82,65,52,47,38,26,68,41,23,30.18,30.11,7,2,15,0.00
2013-7-16,81,67,51,34,28,19,41,25,11,30.21,30.10,6,1,15,0.00
2013-7-17,84,64,42,28,19,2,41,22,5,30.26,30.19,3,0,9,0.00
2013-7-18,88,66,47,34,23,17,43,22,9,30.25,30.18,3,0,9,0.00
2013-7-19,87,69,54,43,33,22,44,28,13,30.22,30.14,2,0,7,0.00
2013-7-20,82,69,60,59,44,-100,73,42,28,30.18,30.10,3,0,12,0.04
2013-7-21,72,63,55,58,54,50,91,74,47,30.18,30.10,5,0,12,0.50
2013-7-22,72,61,53,61,55,50,91,81,57,30.22,30.14,2,0,8,0.47
2013-7-23,75,63,51,63,52,49,93,71,43,30.24,30.19,2,0,7,0.02
2013-7-24,78,65,52,57,49,37,91,60,34,30.24,30.18,2,0,7,0.00
2013-7-25,82,69,51,49,44,40,75,45,26,30.29,30.21,4,1,12,0.00
2013-7-26,76,62,57,60,52,46,89,71,38,30.33,30.27,1,0,5,0.21
2013-7-27,78,65,55,58,51,39,92,65,30,30.29,30.17,3,0,11,0.12
2013-7-28,81,71,53,46,41,32,59,36,24,30.14,30.10,5,2,12,0.00
2013-7-29,81,63,45,43,32,23,71,37,13,30.24,30.13,4,1,13,0.00
2013-7-30,83,67,49,49,39,31,70,40,22,30.29,30.24,4,1,13,0.00
2013-7-31,84,67,48,44,30,12,66,31,12,30.28,30.21,4,1,12,0.00
2013-8-1,85,66,46,34,16,1,34,17,5,30.21,30.14,3,1,10,0.00
2013-8-2,81,62,47,35,23,5,44,25,7,30.17,30.11,5,1,13,0.00
2013-8-3,81,65,45,37,21,3,42,21,6,30.20,30.14,5,1,11,0.00
2013-8-4,83,65,48,35,24,13,54,24,8,30.22,30.18,5,1,12,0.00
2013-8-5,83,65,50,26,19,6,34,19,6,30.22,30.18,5,1,13,0.00
2013-8-6,80,64,48,33,22,4,41,23,6,30.22,30.16,5,1,16,0.00
2013-8-7,76,64,50,26,19,5,38,19,7,30.23,30.18,7,2,18,0.00
2013-8-8,73,61,49,28,21,16,36,22,13,30.19,30.12,7,2,18,0.00
2013-8-9,76,59,42,32,24,15,43,27,12,30.14,30.08,5,1,15,0.00
2013-8-10,77,58,41,29,22,14,47,27,10,30.18,30.13,3,1,12,0.00
2013-8-11,79,59,40,32,27,20,63,33,13,30.17,30.14,2,0,11,0.00
2013-8-12,81,60,43,36,28,21,65,34,13,30.20,30.14,2,0,9,0.00
2013-8-13,83,63,44,38,26,-100,64,30,11,30.22,30.18,2,0,11,0.00
2013-8-14,85,62,45,33,24,-100,55,30,8,30.22,30.18,3,0,11,0.00
2013-8-15,85,59,50,44,19,-100,60,31,18,30.24,30.20,3,1,13,0.00
2013-8-16,84,66,52,51,39,-100,69,42,22,30.26,30.22,3,1,12,0.00
2013-8-17,86,68,53,50,38,-100,64,38,18,30.25,30.16,6,1,16,0.00
2013-8-18,83,69,58,59,47,41,76,47,26,30.23,30.16,4,1,13,0.04
2013-8-19,80,63,57,55,37,-100,76,51,26,30.23,30.18,3,0,10,0.03
2013-8-20,84,65,52,47,36,-100,76,43,13,30.21,30.17,5,0,11,0.00
2013-8-21,84,68,54,43,36,31,61,35,16,30.23,30.18,4,1,13,0.00
2013-8-22,82,69,54,44,38,35,64,36,20,30.23,30.16,5,1,17,0.00
2013-8-23,80,66,50,47,36,31,69,37,18,30.19,30.09,6,1,18,0.00
2013-8-24,79,64,50,42,30,-100,59,32,15,30.16,30.09,8,2,19,0.00
2013-8-25,76,62,47,47,41,34,72,50,23,30.20,30.14,6,1,17,0.00
2013-8-26,65,59,53,56,50,42,86,72,54,30.19,30.14,0,0,4,0.05
2013-8-27,76,58,49,53,49,46,91,77,38,30.16,30.11,3,0,11,0.01
2013-8-28,80,72,58,57,49,47,69,46,32,30.23,30.16,5,1,11,0.00
2013-8-29,75,63,53,55,51,47,84,67,47,30.29,30.22,2,0,7,0.01
2013-8-30,72,60,52,61,55,48,90,83,51,30.30,30.24,1,0,5,0.29
2013-8-31,77,63,57,61,53,-100,92,76,45,30.26,30.19,4,1,11,0.01
2013-9-1,80,65,53,54,46,40,91,57,26,30.22,30.17,4,1,12,0.01
2013-9-2,79,63,50,59,49,43,83,63,29,30.22,30.16,3,0,10,0.08
2013-9-3,81,66,53,52,50,45,84,60,29,30.24,30.18,1,0,7,0.08
2013-9-4,77,62,51,64,51,45,89,70,35,30.26,30.21,2,0,6,0.92
2013-9-5,78,61,51,58,50,44,90,72,31,30.24,30.21,2,0,11,0.24
2013-9-6,80,63,51,53,47,42,88,61,28,30.24,30.18,4,0,12,0.01
2013-9-7,74,59,51,57,48,-100,89,71,38,30.24,30.16,1,0,6,1.19
2013-9-8,77,61,46,52,43,35,89,59,22,30.18,30.09,3,0,10,0.01
2013-9-9,74,60,49,56,45,38,92,64,27,30.14,30.04,2,0,9,0.03
2013-9-10,72,57,47,47,42,38,87,62,33,30.15,30.06,3,0,10,0.03
2013-9-11,73,58,44,44,36,32,87,50,23,30.19,30.14,4,1,12,0.00
2013-9-12,76,59,44,44,33,26,76,44,16,30.18,30.13,4,0,11,0.00
2013-9-13,79,62,44,44,33,29,74,39,17,30.15,30.04,4,0,10,0.00
2013-9-14,80,62,46,48,36,-100,79,45,21,30.08,30.04,1,0,7,0.00
2013-9-15,82,63,46,41,38,32,79,45,19,30.13,30.07,3,1,9,0.00
2013-9-16,80,63,45,47,37,31,80,43,20,30.16,30.10,4,1,10,0.00
2013-9-17,78,61,47,39,28,12,59,33,10,30.11,30.01,4,0,13,0.00
2013-9-18,55,50,46,26,19,3,38,30,12,30.05,29.97,0,0,2,0.00
2013-9-19,75,58,44,29,23,17,50,27,15,30.10,30.05,2,0,11,0.00
2013-9-20,76,57,39,41,32,23,69,44,15,30.09,30.05,4,1,10,0.00
2013-9-21,68,49,38,37,18,-100,69,35,9,30.06,29.93,6,2,17,0.00
2013-9-22,66,50,35,31,19,8,79,34,11,30.07,29.88,4,1,13,0.00
2013-9-23,74,55,41,29,23,14,57,30,16,30.16,30.06,2,0,7,0.00
2013-9-24,74,54,36,38,26,20,65,37,15,30.16,30.06,4,1,13,0.00
2013-9-25,64,55,47,38,22,0,57,29,12,30.06,29.83,9,3,20,0.00
2013-9-26,50,42,30,32,22,10,79,49,22,29.99,29.81,7,2,13,0.00
2013-9-27,60,42,28,21,15,8,67,38,14,30.17,29.99,1,0,8,0.00
2013-9-28,70,49,28,24,12,-100,41,25,14,30.24,30.15,1,0,7,0.00
2013-9-29,74,52,33,23,17,9,61,30,9,30.24,30.19,3,0,11,0.00
2013-9-30,76,55,38,29,18,2,51,29,6,30.21,30.10,4,0,11,0.00
2013-10-1,67,54,45,34,32,30,62,45,28,30.11,30.09,1,0,6,0.00
2013-10-2,70,57,45,34,25,10,63,31,17,30.10,30.04,5,1,18,0.00
2013-10-3,68,54,36,27,17,1,61,28,8,30.05,29.97,5,1,13,0.00
2013-10-4,57,43,33,16,9,4,42,26,12,30.24,30.05,1,0,10,0.00
2013-10-5,60,46,35,13,8,0,36,23,11,30.31,30.24,3,0,12,0.00
2013-10-6,73,53,36,14,4,-12,30,15,8,30.30,30.22,2,0,9,0.00
2013-10-7,68,54,33,23,12,3,43,22,9,30.21,30.09,4,1,11,0.00
2013-10-8,64,50,38,36,21,8,77,37,11,30.09,29.88,5,1,16,0.00
2013-10-9,42,35,27,33,28,18,89,75,40,29.88,29.70,11,2,28,0.01
2013-10-10,52,35,22,36,28,19,90,77,40,30.05,29.77,3,0,12,0.35
2013-10-11,59,40,26,34,27,23,89,64,31,30.11,30.05,2,0,9,0.01
2013-10-12,62,42,27,34,26,-100,87,59,24,30.09,30.02,3,0,9,0.01
2013-10-13,58,45,33,32,21,10,74,44,15,30.11,29.99,5,1,16,0.00
2013-10-14,57,41,29,25,21,16,68,47,27,30.16,30.11,2,0,9,0.00
2013-10-15,59,41,26,22,16,11,61,39,22,30.15,30.09,2,0,6,0.00
2013-10-16,62,45,30,19,14,-1,52,32,10,30.20,30.15,1,0,6,0.00
2013-10-17,66,44,25,19,13,2,57,34,8,30.18,30.10,1,0,6,0.00
2013-10-18,65,47,32,17,12,2,48,26,13,30.21,30.13,2,0,10,0.00
2013-10-19,70,46,27,17,6,-100,47,22,8,30.22,30.18,2,0,9,0.00
2013-10-20,69,50,28,22,12,-2,50,27,6,30.19,30.10,4,1,11,0.00
2013-10-21,67,46,29,18,12,6,53,30,11,30.19,30.13,3,0,11,0.00
2013-10-22,67,48,29,23,16,10,57,31,14,30.19,30.12,3,0,9,0.00
2013-10-23,64,44,30,25,17,12,58,38,15,30.13,30.06,4,0,10,0.00
2013-10-24,66,47,29,26,16,11,65,35,13,30.17,30.08,1,0,10,0.00
2013-10-25,67,52,29,23,16,10,65,28,12,30.27,30.21,2,0,10,0.00
2013-10-26,67,48,31,29,19,-100,63,36,16,30.29,30.20,3,0,9,0.00
2013-10-27,62,46,31,28,22,15,69,42,17,30.21,29.83,12,2,26,0.00
2013-10-28,42,35,30,35,28,-100,91,80,52,29.89,29.77,14,5,28,0.08
2013-10-29,37,32,28,33,27,24,90,84,76,29.98,29.88,5,2,12,0.18
2013-10-30,54,36,26,32,21,4,86,59,23,30.12,29.97,2,0,6,0.01
2013-10-31,60,39,26,20,10,2,47,31,12,30.20,30.11,1,0,6,0.01
2013-11-1,63,45,31,22,19,14,59,39,18,30.25,30.18,2,0,6,0.00
2013-11-2,62,41,25,24,15,-100,63,42,13,30.18,30.01,3,0,11,0.00
2013-11-3,63,44,28,25,15,3,69,39,9,30.02,29.91,4,0,10,0.00
2013-11-4,53,38,29,33,20,13,63,49,36,30.01,29.85,3,0,9,0.00
2013-11-5,50,35,26,18,0,-21,65,30,7,30.23,30.01,1,0,6,0.00
2013-11-6,58,43,25,13,-2,-20,39,17,8,30.31,30.24,4,0,9,0.00
2013-11-7,34,31,29,15,14,12,55,48,39,30.31,30.27,0,0,0,0.00
2013-11-11,66,54,36,18,12,4,26,19,11,30.30,30.21,3,1,13,0.00
2013-11-12,67,47,32,21,15,5,43,29,14,30.34,30.29,0,0,2,0.00
2013-11-13,68,49,30,27,17,12,68,34,12,30.27,30.18,3,0,5,0.00
2013-11-14,64,47,28,27,17,14,64,34,14,30.21,29.96,5,1,17,0.00
2013-11-15,53,43,24,31,21,12,66,43,24,29.94,29.77,6,1,16,0.00
2013-11-16,54,34,21,33,22,-100,87,66,33,29.93,29.81,5,1,12,0.00
2013-11-17,57,38,25,33,27,21,87,69,33,30.11,29.94,3,0,7,0.01
2013-11-18,61,39,24,32,25,19,86,63,24,30.14,30.08,3,0,10,0.01
2013-11-19,57,45,32,27,19,6,61,38,14,30.08,29.99,4,1,15,0.01
2013-11-20,53,44,35,37,32,27,89,64,45,29.99,29.93,5,1,16,0.00
2013-11-21,42,38,33,36,33,30,89,84,73,29.93,29.87,7,2,16,0.20
2013-11-22,33,30,27,30,27,24,90,88,86,29.94,29.88,0,0,7,0.08
2013-11-23,36,29,25,31,24,-100,89,86,78,30.05,29.93,0,0,5,0.16
2013-11-24,42,31,24,33,26,21,89,80,56,30.17,30.04,1,0,5,0.01
2013-12-14,49,34,27,10,2,-100,46,28,13,30.36,30.25,3,0,10,0.00
2013-12-15,60,45,28,14,8,-2,36,22,12,30.36,30.29,3,0,10,0.00
2013-12-16,66,44,31,24,16,8,57,37,16,30.34,30.28,4,0,10,0.00
2013-12-17,69,43,29,27,18,12,63,42,11,30.33,30.21,2,0,7,0.00
2013-12-18,60,46,34,24,17,7,49,33,16,30.20,29.85,6,1,15,0.00
2013-12-19,38,32,28,28,23,8,87,70,32,29.84,29.69,5,1,15,0.00
2013-12-20,38,30,22,28,17,-3,88,62,25,29.93,29.77,1,0,6,0.22
2013-12-22,53,36,21,26,14,4,76,47,14,30.29,30.09,1,0,7,0.00
2013-12-23,55,39,28,25,19,16,68,48,24,30.35,30.28,2,0,9,0.00
2013-12-24,57,39,26,27,17,10,69,46,16,30.31,30.25,2,0,6,0.00
2013-12-25,51,36,24,19,6,-9,59,34,9,30.33,30.26,2,0,9,0.00
2013-12-26,52,41,26,3,-4,-12,29,16,10,30.29,30.23,4,0,10,0.00
2013-12-27,58,41,28,12,0,-11,48,20,9,30.29,30.19,2,0,5,0.00
2013-12-28,56,40,29,16,4,-6,47,27,8,30.19,30.04,5,0,11,0.00